sensor_id;sensor_type;location;lat;lon;timestamp;pressure;altitude;pressure_sealevel;temperature;humidity
19594;BME280;9944;48.240;16.478;2022-07-18T00:01:45;100707.66;;;20.49;43.39
19594;BME280;9944;48.240;16.478;2022-07-18T00:05:48;100710.44;;;20.44;43.54
19594;BME280;9944;48.240;16.478;2022-07-18T00:09:52;100703.44;;;20.39;43.76
19594;BME280;9944;48.240;16.478;2022-07-18T00:13:57;100699.97;;;20.34;43.68
19594;BME280;9944;48.240;16.478;2022-07-18T00:18:00;100701.88;;;20.28;43.88
19594;BME280;9944;48.240;16.478;2022-07-18T00:22:03;100694.88;;;20.21;44.01
19594;BME280;9944;48.240;16.478;2022-07-18T00:26:07;100690.59;;;20.14;44.32
19594;BME280;9944;48.240;16.478;2022-07-18T00:30:12;100693.31;;;20.11;44.78
19594;BME280;9944;48.240;16.478;2022-07-18T00:34:15;100701.38;;;20.08;44.94
19594;BME280;9944;48.240;16.478;2022-07-18T00:38:18;100694.41;;;20.01;45.08
19594;BME280;9944;48.240;16.478;2022-07-18T00:42:21;100699.91;;;19.93;45.09
19594;BME280;9944;48.240;16.478;2022-07-18T00:46:27;100695.63;;;19.84;45.18
19594;BME280;9944;48.240;16.478;2022-07-18T00:50:31;100692.22;;;19.76;45.49
19594;BME280;9944;48.240;16.478;2022-07-18T00:54:34;100690.56;;;19.69;45.44
19594;BME280;9944;48.240;16.478;2022-07-18T00:58:37;100694.25;;;19.62;45.67
19594;BME280;9944;48.240;16.478;2022-07-18T01:02:42;100696.13;;;19.56;45.70
19594;BME280;9944;48.240;16.478;2022-07-18T01:06:46;100689.06;;;19.52;45.90
19594;BME280;9944;48.240;16.478;2022-07-18T01:10:50;100690.03;;;19.48;45.84
19594;BME280;9944;48.240;16.478;2022-07-18T01:14:56;100685.69;;;19.43;46.06
19594;BME280;9944;48.240;16.478;2022-07-18T01:19:01;100687.53;;;19.39;46.01
19594;BME280;9944;48.240;16.478;2022-07-18T01:23:05;100694.78;;;19.31;45.99
19594;BME280;9944;48.240;16.478;2022-07-18T01:27:13;100691.31;;;19.26;45.82
19594;BME280;9944;48.240;16.478;2022-07-18T01:31:16;100688.72;;;19.19;46.07
19594;BME280;9944;48.240;16.478;2022-07-18T01:35:21;100696.78;;;19.16;46.42
19594;BME280;9944;48.240;16.478;2022-07-18T01:39:26;100702.19;;;19.13;46.37
19594;BME280;9944;48.240;16.478;2022-07-18T01:43:30;100704.94;;;19.07;46.43
19594;BME280;9944;48.240;16.478;2022-07-18T01:47:33;100705.09;;;18.99;46.81
19594;BME280;9944;48.240;16.478;2022-07-18T01:51:36;100701.59;;;18.96;47.14
19594;BME280;9944;48.240;16.478;2022-07-18T01:55:42;100691.03;;;18.87;47.41
19594;BME280;9944;48.240;16.478;2022-07-18T01:59:46;100700.94;;;18.78;47.58
19594;BME280;9944;48.240;16.478;2022-07-18T02:03:49;100701.00;;;18.72;47.81
19594;BME280;9944;48.240;16.478;2022-07-18T02:07:52;100694.88;;;18.66;47.70
19594;BME280;9944;48.240;16.478;2022-07-18T02:11:57;100695.81;;;18.63;47.64
19594;BME280;9944;48.240;16.478;2022-07-18T02:16:00;100688.75;;;18.59;47.75
19594;BME280;9944;48.240;16.478;2022-07-18T02:20:04;100685.22;;;18.57;47.83
19594;BME280;9944;48.240;16.478;2022-07-18T02:24:08;100701.22;;;18.57;48.09
19594;BME280;9944;48.240;16.478;2022-07-18T02:28:12;100701.22;;;18.57;48.11
19594;BME280;9944;48.240;16.478;2022-07-18T02:32:15;100696.81;;;18.54;48.28
19594;BME280;9944;48.240;16.478;2022-07-18T02:36:19;100704.88;;;18.50;48.17
19594;BME280;9944;48.240;16.478;2022-07-18T02:40:22;100704.91;;;18.47;48.39
19594;BME280;9944;48.240;16.478;2022-07-18T02:44:27;100704.94;;;18.45;48.60
19594;BME280;9944;48.240;16.478;2022-07-18T02:48:30;100704.09;;;18.41;48.73
19594;BME280;9944;48.240;16.478;2022-07-18T02:52:33;100703.34;;;18.33;49.00
19594;BME280;9944;48.240;16.478;2022-07-18T02:56:36;100703.38;;;18.30;49.27
19594;BME280;9944;48.240;16.478;2022-07-18T03:00:41;100697.19;;;18.27;49.42
19594;BME280;9944;48.240;16.478;2022-07-18T03:04:44;100710.56;;;18.22;49.34
19594;BME280;9944;48.240;16.478;2022-07-18T03:08:47;100703.50;;;18.19;49.67
19594;BME280;9944;48.240;16.478;2022-07-18T03:12:50;100705.31;;;18.16;49.93
19594;BME280;9944;48.240;16.478;2022-07-18T03:16:55;100707.09;;;18.15;49.96
19594;BME280;9944;48.240;16.478;2022-07-18T03:20:58;100706.22;;;18.15;50.38
19594;BME280;9944;48.240;16.478;2022-07-18T03:25:02;100701.78;;;18.14;50.15
19594;BME280;9944;48.240;16.478;2022-07-18T03:29:05;100700.91;;;18.13;50.41
19594;BME280;9944;48.240;16.478;2022-07-18T03:33:10;100712.44;;;18.14;50.44
19594;BME280;9944;48.240;16.478;2022-07-18T03:37:13;100712.44;;;18.14;50.69
19594;BME280;9944;48.240;16.478;2022-07-18T03:41:16;100707.09;;;18.14;50.52
19594;BME280;9944;48.240;16.478;2022-07-18T03:45:19;100708.91;;;18.12;50.54
19594;BME280;9944;48.240;16.478;2022-07-18T03:49:24;100719.53;;;18.15;51.12
19594;BME280;9944;48.240;16.478;2022-07-18T03:53:27;100724.88;;;18.13;51.18
19594;BME280;9944;48.240;16.478;2022-07-18T03:57:31;100730.22;;;18.12;51.47
19594;BME280;9944;48.240;16.478;2022-07-18T04:01:34;100726.69;;;18.11;51.52
19594;BME280;9944;48.240;16.478;2022-07-18T04:05:39;100724.97;;;18.05;51.76
19594;BME280;9944;48.240;16.478;2022-07-18T04:09:42;100725.03;;;17.99;51.92
19594;BME280;9944;48.240;16.478;2022-07-18T04:13:45;100725.06;;;17.95;52.12
19594;BME280;9944;48.240;16.478;2022-07-18T04:17:48;100726.88;;;17.94;52.25
19594;BME280;9944;48.240;16.478;2022-07-18T04:21:53;100725.06;;;17.95;52.50
19594;BME280;9944;48.240;16.478;2022-07-18T04:25:56;100727.72;;;17.96;52.69
19594;BME280;9944;48.240;16.478;2022-07-18T04:30:00;100725.97;;;17.97;52.97
19594;BME280;9944;48.240;16.478;2022-07-18T04:34:04;100726.84;;;17.96;52.89
19594;BME280;9944;48.240;16.478;2022-07-18T04:38:09;100734.88;;;17.93;53.20
19594;BME280;9944;48.240;16.478;2022-07-18T04:42:13;100734.84;;;17.94;53.19
19594;BME280;9944;48.240;16.478;2022-07-18T04:46:16;100737.50;;;17.94;52.67
19594;BME280;9944;48.240;16.478;2022-07-18T04:50:20;100733.06;;;17.95;52.49
19594;BME280;9944;48.240;16.478;2022-07-18T04:54:24;100726.88;;;17.94;52.11
19594;BME280;9944;48.240;16.478;2022-07-18T04:58:28;100731.31;;;17.95;51.89
19594;BME280;9944;48.240;16.478;2022-07-18T05:02:31;100732.16;;;17.97;51.22
19594;BME280;9944;48.240;16.478;2022-07-18T05:06:34;100730.38;;;17.96;50.69
19594;BME280;9944;48.240;16.478;2022-07-18T05:10:39;100728.59;;;17.98;50.39
19594;BME280;9944;48.240;16.478;2022-07-18T05:14:42;100732.91;;;18.07;50.55
19594;BME280;9944;48.240;16.478;2022-07-18T05:18:51;100737.31;;;18.13;50.13
19594;BME280;9944;48.240;16.478;2022-07-18T05:22:54;100737.19;;;18.22;50.23
19594;BME280;9944;48.240;16.478;2022-07-18T05:26:59;100733.50;;;18.35;50.72
19594;BME280;9944;48.240;16.478;2022-07-18T05:31:02;100735.97;;;18.52;50.86
19594;BME280;9944;48.240;16.478;2022-07-18T05:35:06;100729.44;;;18.73;50.58
19594;BME280;9944;48.240;16.478;2022-07-18T05:39:10;100726.53;;;18.92;49.80
19594;BME280;9944;48.240;16.478;2022-07-18T05:43:14;100725.28;;;19.14;49.59
19594;BME280;9944;48.240;16.478;2022-07-18T05:47:18;100732.78;;;19.45;49.15
19594;BME280;9944;48.240;16.478;2022-07-18T05:51:21;100729.72;;;19.67;47.98
19594;BME280;9944;48.240;16.478;2022-07-18T05:55:24;100733.94;;;19.83;47.57
19594;BME280;9944;48.240;16.478;2022-07-18T05:59:29;100727.22;;;20.09;46.86
19594;BME280;9944;48.240;16.478;2022-07-18T06:03:32;100723.34;;;20.22;46.21
19594;BME280;9944;48.240;16.478;2022-07-18T06:07:35;100729.28;;;20.38;45.72
19594;BME280;9944;48.240;16.478;2022-07-18T06:11:39;100732.53;;;20.53;45.79
19594;BME280;9944;48.240;16.478;2022-07-18T06:15:43;100733.94;;;20.71;45.64
19594;BME280;9944;48.240;16.478;2022-07-18T06:19:47;100724.53;;;20.93;45.52
19594;BME280;9944;48.240;16.478;2022-07-18T06:23:50;100726.53;;;21.21;45.28
19594;BME280;9944;48.240;16.478;2022-07-18T06:27:54;100724.94;;;21.51;44.73
19594;BME280;9944;48.240;16.478;2022-07-18T06:31:58;100721.63;;;21.74;43.59
19594;BME280;9944;48.240;16.478;2022-07-18T06:36:02;100718.47;;;21.93;42.95
19594;BME280;9944;48.240;16.478;2022-07-18T06:40:36;100722.19;;;22.18;42.88
19594;BME280;9944;48.240;16.478;2022-07-18T06:44:39;100718.00;;;22.41;42.38
19594;BME280;9944;48.240;16.478;2022-07-18T06:48:44;100713.88;;;22.59;41.99
19594;BME280;9944;48.240;16.478;2022-07-18T06:52:48;100710.56;;;22.79;42.07
19594;BME280;9944;48.240;16.478;2022-07-18T06:56:51;100712.69;;;22.98;41.75
19594;BME280;9944;48.240;16.478;2022-07-18T07:00:54;100711.91;;;23.22;41.36
19594;BME280;9944;48.240;16.478;2022-07-18T07:04:59;100697.03;;;23.39;41.03
19594;BME280;9944;48.240;16.478;2022-07-18T07:09:02;100690.13;;;23.57;41.04
19594;BME280;9944;48.240;16.478;2022-07-18T07:13:07;100695.75;;;23.76;40.26
19594;BME280;9944;48.240;16.478;2022-07-18T07:17:18;100697.91;;;23.91;39.65
19594;BME280;9944;48.240;16.478;2022-07-18T07:21:23;100698.22;;;24.07;39.77
19594;BME280;9944;48.240;16.478;2022-07-18T07:25:26;100687.75;;;24.23;39.40
19594;BME280;9944;48.240;16.478;2022-07-18T07:29:29;100696.97;;;24.41;39.31
19594;BME280;9944;48.240;16.478;2022-07-18T07:33:32;100690.00;;;24.59;38.63
19594;BME280;9944;48.240;16.478;2022-07-18T07:37:37;100695.59;;;24.76;38.88
19594;BME280;9944;48.240;16.478;2022-07-18T07:41:41;100688.63;;;24.93;38.36
19594;BME280;9944;48.240;16.478;2022-07-18T07:45:46;100693.22;;;25.13;38.14
19594;BME280;9944;48.240;16.478;2022-07-18T07:49:50;100691.72;;;25.28;37.66
19594;BME280;9944;48.240;16.478;2022-07-18T07:53:55;100692.69;;;25.47;37.86
19594;BME280;9944;48.240;16.478;2022-07-18T07:57:59;100687.56;;;25.62;37.07
19594;BME280;9944;48.240;16.478;2022-07-18T08:02:02;100699.22;;;25.83;36.49
19594;BME280;9944;48.240;16.478;2022-07-18T08:06:06;100695.00;;;25.98;35.72
19594;BME280;9944;48.240;16.478;2022-07-18T08:10:13;100708.19;;;26.04;36.14
19594;BME280;9944;48.240;16.478;2022-07-18T08:14:16;100696.88;;;26.16;36.09
19594;BME280;9944;48.240;16.478;2022-07-18T08:18:23;100685.34;;;26.31;35.22
19594;BME280;9944;48.240;16.478;2022-07-18T08:22:26;100684.63;;;26.47;35.01
19594;BME280;9944;48.240;16.478;2022-07-18T08:26:31;100678.78;;;26.56;34.63
19594;BME280;9944;48.240;16.478;2022-07-18T08:30:36;100689.03;;;26.68;33.77
19594;BME280;9944;48.240;16.478;2022-07-18T08:34:40;100687.78;;;26.76;33.95
19594;BME280;9944;48.240;16.478;2022-07-18T08:38:43;100678.41;;;26.83;33.27
19594;BME280;9944;48.240;16.478;2022-07-18T08:42:50;100684.81;;;26.99;33.36
19594;BME280;9944;48.240;16.478;2022-07-18T08:47:15;100681.03;;;27.21;33.23
19594;BME280;9944;48.240;16.478;2022-07-18T08:51:20;100668.84;;;27.31;32.87
19594;BME280;9944;48.240;16.478;2022-07-18T08:55:24;100674.41;;;27.46;31.79
19594;BME280;9944;48.240;16.478;2022-07-18T08:59:29;100666.06;;;27.50;31.79
19594;BME280;9944;48.240;16.478;2022-07-18T09:03:32;100672.72;;;27.60;32.22
19594;BME280;9944;48.240;16.478;2022-07-18T09:07:36;100666.91;;;27.68;31.77
19594;BME280;9944;48.240;16.478;2022-07-18T09:11:49;100663.69;;;27.77;31.82
19594;BME280;9944;48.240;16.478;2022-07-18T09:16:01;100660.22;;;27.93;31.65
19594;BME280;9944;48.240;16.478;2022-07-18T09:20:08;100655.25;;;28.01;30.86
19594;BME280;9944;48.240;16.478;2022-07-18T09:24:14;100653.34;;;28.03;31.29
19594;BME280;9944;48.240;16.478;2022-07-18T09:28:17;100645.34;;;28.17;31.53
19594;BME280;9944;48.240;16.478;2022-07-18T09:32:23;100653.41;;;28.35;31.14
19594;BME280;9944;48.240;16.478;2022-07-18T09:36:26;100656.72;;;28.40;29.79
19594;BME280;9944;48.240;16.478;2022-07-18T09:40:32;100643.78;;;28.45;30.26
19594;BME280;9944;48.240;16.478;2022-07-18T09:44:35;100639.28;;;28.62;30.30
19594;BME280;9944;48.240;16.478;2022-07-18T09:48:40;100641.75;;;28.66;30.85
19594;BME280;9944;48.240;16.478;2022-07-18T09:52:43;100643.66;;;28.80;30.74
19594;BME280;9944;48.240;16.478;2022-07-18T09:56:47;100650.44;;;28.87;30.21
19594;BME280;9944;48.240;16.478;2022-07-18T10:00:51;100649.72;;;29.00;29.58
19594;BME280;9944;48.240;16.478;2022-07-18T10:04:55;100639.75;;;29.00;29.51
19594;BME280;9944;48.240;16.478;2022-07-18T10:08:59;100645.50;;;29.10;29.14
19594;BME280;9944;48.240;16.478;2022-07-18T10:13:04;100639.56;;;29.19;28.14
19594;BME280;9944;48.240;16.478;2022-07-18T10:17:07;100631.50;;;29.18;27.99
19594;BME280;9944;48.240;16.478;2022-07-18T10:21:13;100630.19;;;29.25;28.36
19594;BME280;9944;48.240;16.478;2022-07-18T10:25:21;100630.91;;;29.43;27.48
19594;BME280;9944;48.240;16.478;2022-07-18T10:29:25;100631.88;;;29.56;27.03
19594;BME280;9944;48.240;16.478;2022-07-18T10:33:43;100627.28;;;29.73;26.56
19594;BME280;9944;48.240;16.478;2022-07-18T10:37:49;100615.69;;;29.85;26.39
19594;BME280;9944;48.240;16.478;2022-07-18T10:42:16;100613.72;;;29.87;25.69
19594;BME280;9944;48.240;16.478;2022-07-18T10:46:21;100617.63;;;29.83;26.17
19594;BME280;9944;48.240;16.478;2022-07-18T10:50:25;100599.88;;;29.92;26.46
19594;BME280;9944;48.240;16.478;2022-07-18T10:54:29;100598.22;;;30.03;26.69
19594;BME280;9944;48.240;16.478;2022-07-18T10:58:38;100586.34;;;30.19;25.50
19594;BME280;9944;48.240;16.478;2022-07-18T11:02:43;100585.78;;;30.28;25.52
19594;BME280;9944;48.240;16.478;2022-07-18T11:06:54;100580.16;;;30.31;25.17
19594;BME280;9944;48.240;16.478;2022-07-18T11:11:10;100574.59;;;30.33;25.71
19594;BME280;9944;48.240;16.478;2022-07-18T11:15:14;100561.13;;;30.46;25.73
19594;BME280;9944;48.240;16.478;2022-07-18T11:19:19;100567.41;;;30.46;24.84
19594;BME280;9944;48.240;16.478;2022-07-18T11:23:24;100551.22;;;30.45;24.80
19594;BME280;9944;48.240;16.478;2022-07-18T11:27:30;100550.25;;;30.46;24.38
19594;BME280;9944;48.240;16.478;2022-07-18T11:31:43;100552.34;;;30.55;24.95
19594;BME280;9944;48.240;16.478;2022-07-18T11:35:47;100545.50;;;30.62;24.84
19594;BME280;9944;48.240;16.478;2022-07-18T11:39:51;100541.63;;;30.66;24.80
19594;BME280;9944;48.240;16.478;2022-07-18T11:43:56;100544.25;;;30.68;24.87
19594;BME280;9944;48.240;16.478;2022-07-18T11:47:59;100539.47;;;30.71;25.03
19594;BME280;9944;48.240;16.478;2022-07-18T11:52:02;100531.34;;;30.84;24.54
19594;BME280;9944;48.240;16.478;2022-07-18T11:56:07;100527.22;;;30.91;23.69
19594;BME280;9944;48.240;16.478;2022-07-18T12:00:17;100523.84;;;30.88;23.95
19594;BME280;9944;48.240;16.478;2022-07-18T12:04:23;100516.22;;;30.80;23.61
19594;BME280;9944;48.240;16.478;2022-07-18T12:08:32;100515.03;;;30.84;23.26
19594;BME280;9944;48.240;16.478;2022-07-18T12:12:42;100505.00;;;30.85;23.08
19594;BME280;9944;48.240;16.478;2022-07-18T12:16:47;100499.59;;;30.85;22.89
19594;BME280;9944;48.240;16.478;2022-07-18T12:21:06;100500.81;;;30.93;22.88
19594;BME280;9944;48.240;16.478;2022-07-18T12:25:10;100485.41;;;31.07;22.68
19594;BME280;9944;48.240;16.478;2022-07-18T12:29:14;100489.97;;;31.06;22.72
19594;BME280;9944;48.240;16.478;2022-07-18T12:33:18;100492.81;;;31.05;23.45
19594;BME280;9944;48.240;16.478;2022-07-18T12:37:25;100482.16;;;31.14;23.05
19594;BME280;9944;48.240;16.478;2022-07-18T12:41:29;100483.44;;;31.22;22.66
19594;BME280;9944;48.240;16.478;2022-07-18T12:45:32;100475.84;;;31.27;22.64
19594;BME280;9944;48.240;16.478;2022-07-18T12:49:37;100477.13;;;31.34;22.41
19594;BME280;9944;48.240;16.478;2022-07-18T12:53:42;100471.22;;;31.40;22.35
19594;BME280;9944;48.240;16.478;2022-07-18T12:57:45;100467.09;;;31.47;22.79
19594;BME280;9944;48.240;16.478;2022-07-18T13:01:48;100458.75;;;31.50;22.64
19594;BME280;9944;48.240;16.478;2022-07-18T13:05:53;100461.03;;;31.57;22.97
19594;BME280;9944;48.240;16.478;2022-07-18T13:09:57;100455.38;;;31.60;22.97
19594;BME280;9944;48.240;16.478;2022-07-18T13:14:00;100457.19;;;31.59;22.97
19594;BME280;9944;48.240;16.478;2022-07-18T13:18:04;100455.81;;;31.53;22.38
19594;BME280;9944;48.240;16.478;2022-07-18T13:22:08;100453.19;;;31.52;22.63
19594;BME280;9944;48.240;16.478;2022-07-18T13:26:11;100444.69;;;31.57;22.57
19594;BME280;9944;48.240;16.478;2022-07-18T13:30:15;100446.19;;;31.61;22.47
19594;BME280;9944;48.240;16.478;2022-07-18T13:34:19;100439.69;;;31.63;22.42
19594;BME280;9944;48.240;16.478;2022-07-18T13:38:25;100435.00;;;31.65;21.82
19594;BME280;9944;48.240;16.478;2022-07-18T13:42:28;100435.63;;;31.69;22.84
19594;BME280;9944;48.240;16.478;2022-07-18T13:46:31;100430.50;;;31.77;23.18
19594;BME280;9944;48.240;16.478;2022-07-18T13:50:34;100423.81;;;31.81;22.61
19594;BME280;9944;48.240;16.478;2022-07-18T13:54:39;100415.13;;;31.76;22.04
19594;BME280;9944;48.240;16.478;2022-07-18T13:58:43;100437.53;;;31.80;22.65
19594;BME280;9944;48.240;16.478;2022-07-18T14:02:46;100425.56;;;31.82;22.28
19594;BME280;9944;48.240;16.478;2022-07-18T14:06:49;100413.91;;;31.80;21.43
19594;BME280;9944;48.240;16.478;2022-07-18T14:10:54;100408.72;;;31.77;21.62
19594;BME280;9944;48.240;16.478;2022-07-18T14:14:58;100408.94;;;31.74;21.64
19594;BME280;9944;48.240;16.478;2022-07-18T14:19:01;100410.13;;;31.70;22.35
19594;BME280;9944;48.240;16.478;2022-07-18T14:23:05;100400.47;;;31.66;22.20
19594;BME280;9944;48.240;16.478;2022-07-18T14:27:10;100405.91;;;31.66;22.68
19594;BME280;9944;48.240;16.478;2022-07-18T14:31:13;100405.50;;;31.59;23.09
19594;BME280;9944;48.240;16.478;2022-07-18T14:35:16;100398.44;;;31.57;21.84
19594;BME280;9944;48.240;16.478;2022-07-18T14:39:20;100393.09;;;31.55;22.23
19594;BME280;9944;48.240;16.478;2022-07-18T14:43:25;100389.53;;;31.55;22.03
19594;BME280;9944;48.240;16.478;2022-07-18T14:47:28;100388.31;;;31.59;22.62
19594;BME280;9944;48.240;16.478;2022-07-18T14:51:33;100372.41;;;31.52;22.26
19594;BME280;9944;48.240;16.478;2022-07-18T14:55:36;100371.66;;;31.50;22.17
19594;BME280;9944;48.240;16.478;2022-07-18T14:59:41;100374.06;;;31.42;22.68
19594;BME280;9944;48.240;16.478;2022-07-18T15:03:44;100378.75;;;31.40;23.04
19594;BME280;9944;48.240;16.478;2022-07-18T15:07:59;100379.84;;;31.38;22.81
19594;BME280;9944;48.240;16.478;2022-07-18T15:12:03;100364.44;;;31.25;22.38
19594;BME280;9944;48.240;16.478;2022-07-18T15:16:08;100363.91;;;31.07;22.84
19594;BME280;9944;48.240;16.478;2022-07-18T15:20:11;100360.88;;;30.99;22.70
19594;BME280;9944;48.240;16.478;2022-07-18T15:24:14;100354.66;;;30.97;22.76
19594;BME280;9944;48.240;16.478;2022-07-18T15:28:17;100350.03;;;30.99;22.76
19594;BME280;9944;48.240;16.478;2022-07-18T15:32:24;100344.78;;;30.96;22.70
19594;BME280;9944;48.240;16.478;2022-07-18T15:36:28;100337.72;;;30.93;23.26
19594;BME280;9944;48.240;16.478;2022-07-18T15:40:31;100335.22;;;30.90;23.21
19594;BME280;9944;48.240;16.478;2022-07-18T15:44:34;100328.13;;;30.88;23.13
19594;BME280;9944;48.240;16.478;2022-07-18T15:48:41;100330.19;;;30.84;22.33
19594;BME280;9944;48.240;16.478;2022-07-18T15:52:44;100332.28;;;30.81;22.39
19594;BME280;9944;48.240;16.478;2022-07-18T15:56:47;100329.75;;;30.77;22.86
19594;BME280;9944;48.240;16.478;2022-07-18T16:00:50;100319.00;;;30.76;23.05
19594;BME280;9944;48.240;16.478;2022-07-18T16:04:55;100319.00;;;30.76;23.23
19594;BME280;9944;48.240;16.478;2022-07-18T16:08:58;100311.41;;;30.68;22.97
19594;BME280;9944;48.240;16.478;2022-07-18T16:13:02;100308.25;;;30.62;23.29
19594;BME280;9944;48.240;16.478;2022-07-18T16:17:05;100302.38;;;30.55;23.25
19594;BME280;9944;48.240;16.478;2022-07-18T16:21:10;100300.13;;;30.49;23.29
19594;BME280;9944;48.240;16.478;2022-07-18T16:25:13;100307.94;;;30.40;23.24
19594;BME280;9944;48.240;16.478;2022-07-18T16:29:16;100300.09;;;30.36;23.12
19594;BME280;9944;48.240;16.478;2022-07-18T16:33:19;100296.53;;;30.35;24.18
19594;BME280;9944;48.240;16.478;2022-07-18T16:37:24;100296.91;;;30.29;24.37
19594;BME280;9944;48.240;16.478;2022-07-18T16:41:28;100301.69;;;30.26;24.39
19594;BME280;9944;48.240;16.478;2022-07-18T16:45:33;100306.38;;;30.23;26.23
19594;BME280;9944;48.240;16.478;2022-07-18T16:49:37;100301.78;;;30.24;26.86
19594;BME280;9944;48.240;16.478;2022-07-18T16:53:42;100302.03;;;30.21;26.02
19594;BME280;9944;48.240;16.478;2022-07-18T16:57:45;100297.13;;;30.13;25.68
19594;BME280;9944;48.240;16.478;2022-07-18T17:01:49;100299.38;;;30.07;25.62
19594;BME280;9944;48.240;16.478;2022-07-18T17:05:53;100294.19;;;30.03;25.69
19594;BME280;9944;48.240;16.478;2022-07-18T17:09:58;100295.25;;;30.01;26.50
19594;BME280;9944;48.240;16.478;2022-07-18T17:14:02;100295.47;;;29.98;27.47
19594;BME280;9944;48.240;16.478;2022-07-18T17:18:06;100301.00;;;29.96;28.41
19594;BME280;9944;48.240;16.478;2022-07-18T17:22:10;100288.81;;;29.89;28.44
19594;BME280;9944;48.240;16.478;2022-07-18T17:26:16;100299.13;;;29.84;28.69
19594;BME280;9944;48.240;16.478;2022-07-18T17:30:20;100293.44;;;29.74;28.59
19594;BME280;9944;48.240;16.478;2022-07-18T17:34:24;100291.97;;;29.68;29.15
19594;BME280;9944;48.240;16.478;2022-07-18T17:38:28;100289.69;;;29.62;29.13
19594;BME280;9944;48.240;16.478;2022-07-18T17:42:33;100293.81;;;29.55;29.31
19594;BME280;9944;48.240;16.478;2022-07-18T17:46:37;100298.97;;;29.45;28.60
19594;BME280;9944;48.240;16.478;2022-07-18T17:50:41;100303.91;;;29.39;27.87
19594;BME280;9944;48.240;16.478;2022-07-18T17:54:45;100298.91;;;29.33;28.40
19594;BME280;9944;48.240;16.478;2022-07-18T17:58:50;100297.34;;;29.28;27.98
19594;BME280;9944;48.240;16.478;2022-07-18T18:02:53;100303.19;;;29.22;27.73
19594;BME280;9944;48.240;16.478;2022-07-18T18:06:57;100299.13;;;29.15;28.25
19594;BME280;9944;48.240;16.478;2022-07-18T18:11:00;100299.59;;;29.07;28.16
19594;BME280;9944;48.240;16.478;2022-07-18T18:15:06;100306.69;;;28.96;28.42
19594;BME280;9944;48.240;16.478;2022-07-18T18:19:10;100306.31;;;28.87;28.59
19594;BME280;9944;48.240;16.478;2022-07-18T18:23:13;100300.41;;;28.81;28.58
19594;BME280;9944;48.240;16.478;2022-07-18T18:27:17;100304.59;;;28.72;28.82
19594;BME280;9944;48.240;16.478;2022-07-18T18:31:21;100298.09;;;28.60;29.19
19594;BME280;9944;48.240;16.478;2022-07-18T18:35:25;100305.69;;;28.53;28.84
19594;BME280;9944;48.240;16.478;2022-07-18T18:39:30;100311.50;;;28.47;28.98
19594;BME280;9944;48.240;16.478;2022-07-18T18:43:34;100316.53;;;28.39;29.51
19594;BME280;9944;48.240;16.478;2022-07-18T18:47:39;100318.91;;;28.29;29.86
19594;BME280;9944;48.240;16.478;2022-07-18T18:51:44;100315.81;;;28.21;29.40
19594;BME280;9944;48.240;16.478;2022-07-18T18:55:47;100313.75;;;28.10;29.92
19594;BME280;9944;48.240;16.478;2022-07-18T18:59:51;100320.66;;;28.00;29.94
19594;BME280;9944;48.240;16.478;2022-07-18T19:03:56;100322.09;;;27.91;30.62
19594;BME280;9944;48.240;16.478;2022-07-18T19:08:00;100332.50;;;27.83;30.61
19594;BME280;9944;48.240;16.478;2022-07-18T19:12:03;100333.91;;;27.74;30.44
19594;BME280;9944;48.240;16.478;2022-07-18T19:16:07;100339.81;;;27.65;30.49
19594;BME280;9944;48.240;16.478;2022-07-18T19:20:12;100340.38;;;27.56;31.02
19594;BME280;9944;48.240;16.478;2022-07-18T19:24:15;100334.59;;;27.46;30.75
19594;BME280;9944;48.240;16.478;2022-07-18T19:28:18;100337.75;;;27.38;30.84
19594;BME280;9944;48.240;16.478;2022-07-18T19:32:22;100339.16;;;27.30;31.01
19594;BME280;9944;48.240;16.478;2022-07-18T19:36:27;100340.44;;;27.22;30.74
19594;BME280;9944;48.240;16.478;2022-07-18T19:40:30;100347.06;;;27.17;30.93
19594;BME280;9944;48.240;16.478;2022-07-18T19:44:33;100342.00;;;27.11;32.19
19594;BME280;9944;48.240;16.478;2022-07-18T19:48:37;100342.59;;;27.00;33.01
19594;BME280;9944;48.240;16.478;2022-07-18T19:52:44;100340.56;;;26.88;32.73
19594;BME280;9944;48.240;16.478;2022-07-18T19:56:47;100347.34;;;26.79;32.88
19594;BME280;9944;48.240;16.478;2022-07-18T20:00:51;100344.25;;;26.69;33.35
19594;BME280;9944;48.240;16.478;2022-07-18T20:04:56;100338.44;;;26.59;33.70
19594;BME280;9944;48.240;16.478;2022-07-18T20:09:02;100346.09;;;26.51;33.05
19594;BME280;9944;48.240;16.478;2022-07-18T20:13:06;100343.22;;;26.37;33.17
19594;BME280;9944;48.240;16.478;2022-07-18T20:17:10;100350.88;;;26.28;33.91
19594;BME280;9944;48.240;16.478;2022-07-18T20:21:14;100354.94;;;26.20;34.02
19594;BME280;9944;48.240;16.478;2022-07-18T20:25:18;100357.22;;;26.10;34.07
19594;BME280;9944;48.240;16.478;2022-07-18T20:29:22;100350.69;;;25.97;34.67
19594;BME280;9944;48.240;16.478;2022-07-18T20:33:25;100356.66;;;25.84;34.46
19594;BME280;9944;48.240;16.478;2022-07-18T20:37:28;100358.97;;;25.74;34.87
19594;BME280;9944;48.240;16.478;2022-07-18T20:41:33;100350.31;;;25.68;36.09
19594;BME280;9944;48.240;16.478;2022-07-18T20:45:36;100355.84;;;25.65;37.11
19594;BME280;9944;48.240;16.478;2022-07-18T20:49:47;100352.50;;;25.60;38.39
19594;BME280;9944;48.240;16.478;2022-07-18T20:53:51;100353.75;;;25.52;38.58
19594;BME280;9944;48.240;16.478;2022-07-18T20:57:56;100357.31;;;25.34;39.14
19594;BME280;9944;48.240;16.478;2022-07-18T21:01:59;100358.97;;;25.17;39.08
19594;BME280;9944;48.240;16.478;2022-07-18T21:06:03;100355.97;;;25.05;40.07
19594;BME280;9944;48.240;16.478;2022-07-18T21:10:08;100349.19;;;24.96;40.46
19594;BME280;9944;48.240;16.478;2022-07-18T21:14:14;100349.63;;;24.87;40.79
19594;BME280;9944;48.240;16.478;2022-07-18T21:18:46;100353.69;;;24.76;40.38